createdAt,value
2023-04-26T00:02:04.733Z,99.90
2023-04-26T00:04:32.241Z,99.90
2023-04-26T00:07:00.555Z,99.90
2023-04-26T00:09:27.354Z,99.90
2023-04-26T00:11:54.122Z,99.90
2023-04-26T00:14:21.194Z,99.90
2023-04-26T00:16:48.173Z,99.90
2023-04-26T00:19:16.049Z,99.90
2023-04-26T00:21:42.785Z,99.90
2023-04-26T00:24:09.679Z,99.90
2023-04-26T00:26:36.470Z,99.90
2023-04-26T00:29:04.793Z,99.90
2023-04-26T00:31:31.871Z,99.90
2023-04-26T00:33:58.633Z,99.90
2023-04-26T00:36:26.326Z,99.90
2023-04-26T00:38:53.429Z,99.90
2023-04-26T00:41:20.615Z,99.90
2023-04-26T00:43:47.345Z,99.90
2023-04-26T00:46:14.385Z,99.90
2023-04-26T00:48:42.101Z,99.90
2023-04-26T00:51:09.272Z,99.90
2023-04-26T00:53:36.578Z,99.90
2023-04-26T00:56:04.017Z,99.90
2023-04-26T00:58:31.179Z,99.90
2023-04-26T01:00:58.367Z,99.90
2023-04-26T01:03:26.704Z,99.90
2023-04-26T01:05:53.910Z,99.90
2023-04-26T01:08:21.840Z,99.90
2023-04-26T01:10:49.295Z,99.90
2023-04-26T01:13:16.957Z,99.90
2023-04-26T01:15:46.254Z,99.90
2023-04-26T01:18:14.380Z,99.90
2023-04-26T01:20:42.912Z,99.90
2023-04-26T01:23:11.762Z,99.90
2023-04-26T01:25:38.746Z,99.90
2023-04-26T01:28:05.673Z,99.90
2023-04-26T01:30:32.417Z,99.90
2023-04-26T01:32:59.228Z,99.90
2023-04-26T01:35:26.618Z,99.90
2023-04-26T01:37:53.446Z,99.90
2023-04-26T01:40:20.341Z,99.90
2023-04-26T01:42:47.112Z,99.90
2023-04-26T01:45:13.955Z,99.90
2023-04-26T01:47:40.769Z,99.90
2023-04-26T01:50:08.377Z,99.90
2023-04-26T01:52:35.105Z,99.90
2023-04-26T01:55:01.959Z,99.90
2023-04-26T01:57:28.702Z,99.90
2023-04-26T01:59:56.795Z,99.90
2023-04-26T02:02:23.625Z,99.90
2023-04-26T02:04:50.881Z,99.90
2023-04-26T02:07:17.807Z,99.90
2023-04-26T02:09:46.475Z,99.90
2023-04-26T02:12:13.280Z,99.90
2023-04-26T02:14:40.044Z,99.90
2023-04-26T02:17:06.804Z,99.90
2023-04-26T02:19:33.624Z,99.90
2023-04-26T02:22:00.546Z,99.90
2023-04-26T02:24:27.317Z,99.90
2023-04-26T02:26:54.612Z,99.90
2023-04-26T02:29:32.722Z,99.90
2023-04-26T02:32:07.657Z,99.90
2023-04-26T02:34:34.495Z,99.90
2023-04-26T02:37:01.747Z,99.90
2023-04-26T02:39:28.563Z,99.90
2023-04-26T02:41:55.355Z,99.90
2023-04-26T02:44:22.177Z,99.90
2023-04-26T02:46:49.024Z,99.90
2023-04-26T02:49:16.598Z,99.90
2023-04-26T02:51:43.464Z,99.90
2023-04-26T02:54:10.245Z,99.90
2023-04-26T02:56:36.973Z,99.90
2023-04-26T02:59:03.721Z,99.90
2023-04-26T03:01:31.021Z,99.90
2023-04-26T03:03:58.012Z,99.90
2023-04-26T03:06:24.863Z,99.90
2023-04-26T03:08:51.965Z,99.90
2023-04-26T03:11:18.918Z,99.90
2023-04-26T03:13:45.678Z,99.90
2023-04-26T03:16:12.494Z,99.90
2023-04-26T03:18:39.236Z,99.90
2023-04-26T03:21:06.128Z,99.90
2023-04-26T03:23:33.047Z,99.90
2023-04-26T03:25:59.847Z,99.90
2023-04-26T03:28:26.654Z,99.90
2023-04-26T03:30:53.464Z,99.90
2023-04-26T03:33:20.195Z,99.90
2023-04-26T03:35:46.998Z,99.90
2023-04-26T03:38:13.740Z,99.80
2023-04-26T03:40:40.681Z,99.50
2023-04-26T03:43:07.502Z,99.20
2023-04-26T03:45:34.325Z,99.40
2023-04-26T03:48:01.190Z,99.10
2023-04-26T03:50:27.954Z,99.10
2023-04-26T03:52:54.838Z,98.90
2023-04-26T03:55:21.630Z,99.10
2023-04-26T03:57:48.549Z,98.90
2023-04-26T04:00:15.662Z,98.80
2023-04-26T04:02:43.059Z,98.50
2023-04-26T04:05:10.433Z,98.80
2023-04-26T04:07:37.526Z,98.90
2023-04-26T04:10:04.677Z,98.80
2023-04-26T04:12:31.855Z,98.80
2023-04-26T04:14:58.607Z,98.90
2023-04-26T04:17:25.358Z,99.10
2023-04-26T04:19:52.201Z,99.40
2023-04-26T04:22:18.925Z,99.00
2023-04-26T04:24:47.442Z,99.20
2023-04-26T04:27:15.028Z,99.20
2023-04-26T04:29:42.235Z,99.40
2023-04-26T04:32:09.170Z,99.20
2023-04-26T04:34:39.408Z,99.10
2023-04-26T04:37:06.158Z,99.10
2023-04-26T04:39:32.914Z,99.00
2023-04-26T04:42:00.422Z,99.00
2023-04-26T04:44:27.235Z,99.20
2023-04-26T04:46:54.131Z,98.80
2023-04-26T04:49:21.037Z,98.70
2023-04-26T04:51:48.044Z,98.60
2023-04-26T04:54:19.847Z,98.50
2023-04-26T04:56:46.644Z,98.20
2023-04-26T04:59:13.511Z,98.00
2023-04-26T05:01:40.349Z,98.00
2023-04-26T05:04:07.604Z,97.70
2023-04-26T05:06:34.742Z,97.40
2023-04-26T05:09:01.751Z,97.50
2023-04-26T05:11:28.652Z,97.30
2023-04-26T05:13:55.769Z,97.70
2023-04-26T05:16:23.019Z,97.30
2023-04-26T05:18:49.889Z,97.20
2023-04-26T05:21:17.058Z,96.60
2023-04-26T05:23:43.841Z,96.90
2023-04-26T05:26:15.886Z,96.80
2023-04-26T05:28:43.041Z,96.50
2023-04-26T05:31:11.383Z,96.60
2023-04-26T05:33:38.588Z,96.30
2023-04-26T05:36:06.092Z,96.20
2023-04-26T05:38:32.996Z,96.30
2023-04-26T05:40:59.772Z,96.00
2023-04-26T05:43:26.549Z,95.80
2023-04-26T05:45:54.666Z,96.10
2023-04-26T05:48:22.921Z,95.90
2023-04-26T05:50:50.641Z,96.00
2023-04-26T05:53:18.160Z,95.80
2023-04-26T05:55:45.637Z,95.80
2023-04-26T05:58:12.397Z,95.70
2023-04-26T06:00:39.726Z,95.80
2023-04-26T06:03:06.735Z,95.90
2023-04-26T06:05:34.147Z,95.80
2023-04-26T06:08:01.693Z,95.70
2023-04-26T06:10:28.551Z,95.70
2023-04-26T06:12:55.545Z,95.40
2023-04-26T06:15:22.367Z,95.20
2023-04-26T06:17:49.135Z,95.50
2023-04-26T06:20:16.310Z,95.50
2023-04-26T06:22:43.512Z,95.40
2023-04-26T06:25:10.419Z,95.20
2023-04-26T06:27:39.082Z,95.30
2023-04-26T06:30:07.916Z,95.40
2023-04-26T06:32:35.073Z,95.20
2023-04-26T06:35:02.175Z,95.60
2023-04-26T06:37:29.038Z,95.20
2023-04-26T06:39:55.806Z,95.20
2023-04-26T06:42:22.591Z,95.20
2023-04-26T06:44:49.582Z,94.90
2023-04-26T06:47:16.360Z,94.70
2023-04-26T06:49:43.154Z,94.60
2023-04-26T06:52:10.003Z,94.30
2023-04-26T06:54:45.983Z,94.40
2023-04-26T06:57:20.849Z,94.10
2023-04-26T06:59:47.673Z,93.90
2023-04-26T07:02:15.819Z,94.30
2023-04-26T07:04:43.254Z,94.00
2023-04-26T07:07:13.024Z,94.20
2023-04-26T07:09:41.072Z,94.20
2023-04-26T07:12:07.929Z,94.30
2023-04-26T07:14:37.162Z,93.90
2023-04-26T07:17:05.348Z,94.10
2023-04-26T07:19:32.141Z,93.40
2023-04-26T07:21:58.948Z,93.50
2023-04-26T07:24:25.848Z,93.40
2023-04-26T07:26:52.779Z,92.80
2023-04-26T07:29:19.560Z,92.80
2023-04-26T07:31:47.072Z,91.70
2023-04-26T07:34:13.816Z,91.70
2023-04-26T07:36:40.743Z,91.90
2023-04-26T07:39:10.365Z,91.60
2023-04-26T07:41:37.106Z,91.40
2023-04-26T07:44:04.254Z,91.40
2023-04-26T07:46:32.760Z,91.10
2023-04-26T07:48:59.482Z,90.80
2023-04-26T07:51:27.475Z,90.10
2023-04-26T07:53:55.828Z,90.40
2023-04-26T07:56:24.299Z,90.60
2023-04-26T07:58:51.696Z,90.80
2023-04-26T08:01:18.634Z,90.60
2023-04-26T08:03:45.712Z,90.10
2023-04-26T08:06:12.848Z,90.20
2023-04-26T08:08:45.296Z,90.70
2023-04-26T08:11:12.579Z,90.40
2023-04-26T08:13:39.360Z,90.30
2023-04-26T08:16:06.600Z,90.20
2023-04-26T08:18:33.774Z,90.50
2023-04-26T08:21:01.048Z,90.10
2023-04-26T08:23:28.493Z,89.10
2023-04-26T08:25:55.322Z,87.00
2023-04-26T08:28:22.099Z,87.80
2023-04-26T08:30:48.896Z,88.10
2023-04-26T08:33:17.836Z,89.80
2023-04-26T08:35:44.814Z,89.80
2023-04-26T08:38:11.662Z,90.40
2023-04-26T08:40:38.707Z,90.00
2023-04-26T08:43:05.748Z,90.10
2023-04-26T08:45:34.363Z,89.70
2023-04-26T08:48:07.213Z,89.20
2023-04-26T08:50:36.590Z,88.60
2023-04-26T08:53:03.929Z,88.60
2023-04-26T08:55:31.075Z,89.50
2023-04-26T08:57:58.497Z,89.00
2023-04-26T09:00:26.124Z,89.10
2023-04-26T09:02:53.773Z,89.10
2023-04-26T09:05:24.832Z,88.30
2023-04-26T09:08:02.117Z,88.70
2023-04-26T09:10:29.823Z,89.30
2023-04-26T09:12:56.664Z,88.60
2023-04-26T09:15:27.747Z,88.60
2023-04-26T09:17:54.734Z,88.90
2023-04-26T09:20:28.915Z,89.00
2023-04-26T09:23:07.458Z,88.50
2023-04-26T09:25:35.192Z,87.40
2023-04-26T09:28:03.907Z,85.20
2023-04-26T09:30:37.927Z,84.20
2023-04-26T09:33:06.657Z,82.80
2023-04-26T09:35:41.427Z,81.90
2023-04-26T09:38:15.305Z,83.20
2023-04-26T09:40:47.149Z,84.50
2023-04-26T09:43:22.287Z,83.20
2023-04-26T09:45:50.956Z,84.60
2023-04-26T09:48:20.789Z,83.20
2023-04-26T09:50:48.161Z,81.10
2023-04-26T09:53:31.893Z,79.20
2023-04-26T09:56:08.497Z,79.10
2023-04-26T09:58:58.859Z,79.00
2023-04-26T10:01:28.377Z,79.20
2023-04-26T10:03:57.762Z,79.90
2023-04-26T10:06:25.195Z,81.00
2023-04-26T10:11:20.493Z,76.90
2023-04-26T10:13:49.985Z,77.00
2023-04-26T10:16:17.322Z,75.20
2023-04-26T10:18:44.075Z,72.00
2023-04-26T10:21:16.881Z,72.30
2023-04-26T10:23:44.206Z,74.70
2023-04-26T10:26:54.887Z,75.60
2023-04-26T10:29:22.966Z,76.00
2023-04-26T10:32:04.624Z,74.80
2023-04-26T10:34:33.038Z,72.80
2023-04-26T10:37:10.056Z,71.00
2023-04-26T10:39:37.239Z,72.50
2023-04-26T10:42:26.076Z,70.00
2023-04-26T10:44:55.239Z,70.60
2023-04-26T10:47:23.318Z,68.30
2023-04-26T10:49:50.373Z,66.50
2023-04-26T10:52:23.052Z,64.40
2023-04-26T10:54:57.025Z,66.30
2023-04-26T10:57:45.845Z,66.00
2023-04-26T11:00:16.614Z,66.80
2023-04-26T11:02:53.439Z,66.40
2023-04-26T11:05:39.052Z,67.40
2023-04-26T11:08:16.685Z,67.80
2023-04-26T11:10:45.662Z,68.10
2023-04-26T11:13:12.451Z,67.90
2023-04-26T11:15:39.267Z,67.30
2023-04-26T11:18:06.432Z,67.60
2023-04-26T11:20:34.506Z,66.80
2023-04-26T11:23:01.748Z,67.30
2023-04-26T11:25:29.268Z,67.70
2023-04-26T11:28:03.283Z,68.20
2023-04-26T11:30:31.879Z,68.90
2023-04-26T11:33:06.514Z,69.80
2023-04-26T11:35:35.858Z,68.00
2023-04-26T11:38:07.919Z,68.30
2023-04-26T11:40:36.658Z,66.60
2023-04-26T11:43:07.557Z,67.00
2023-04-26T11:45:36.445Z,66.80
2023-04-26T11:48:05.823Z,66.90
2023-04-26T11:50:34.386Z,67.10
2023-04-26T11:53:04.486Z,67.60
2023-04-26T11:55:33.193Z,67.80
2023-04-26T11:58:00.673Z,67.70
2023-04-26T12:00:27.743Z,68.00
2023-04-26T12:02:56.018Z,67.80
2023-04-26T12:05:30.648Z,67.40
2023-04-26T12:07:59.040Z,67.30
2023-04-26T12:10:27.923Z,68.60
2023-04-26T12:12:58.853Z,66.70
2023-04-26T12:15:30.106Z,66.90
2023-04-26T12:18:11.345Z,66.70
2023-04-26T12:20:40.961Z,66.10
2023-04-26T12:23:14.023Z,65.90
2023-04-26T12:25:51.248Z,67.60
2023-04-26T12:28:18.251Z,68.30
2023-04-26T12:30:44.998Z,68.80
2023-04-26T12:33:17.045Z,67.40
2023-04-26T12:35:44.708Z,68.30
2023-04-26T12:38:12.296Z,67.60
2023-04-26T12:40:39.462Z,67.80
2023-04-26T12:43:06.934Z,68.40
2023-04-26T12:45:34.065Z,69.70
2023-04-26T12:48:00.880Z,69.50
2023-04-26T12:50:28.090Z,69.00
2023-04-26T12:52:54.910Z,66.90
2023-04-26T12:55:21.683Z,66.40
2023-04-26T12:57:48.900Z,64.50
2023-04-26T13:00:21.608Z,63.70
2023-04-26T13:02:48.495Z,61.80
2023-04-26T13:05:15.908Z,62.20
2023-04-26T13:07:43.910Z,63.90
2023-04-26T13:10:12.905Z,64.50
2023-04-26T13:12:40.650Z,64.70
2023-04-26T13:15:08.482Z,66.90
2023-04-26T13:17:37.185Z,66.70
2023-04-26T13:20:06.253Z,67.00
2023-04-26T13:22:33.963Z,66.80
2023-04-26T13:25:00.745Z,67.10
2023-04-26T13:27:30.491Z,67.20
2023-04-26T13:29:58.439Z,66.30
2023-04-26T13:32:25.505Z,65.80
2023-04-26T13:34:52.887Z,66.60
2023-04-26T13:37:21.381Z,66.60
2023-04-26T13:39:48.588Z,65.80
2023-04-26T13:42:16.714Z,64.00
2023-04-26T13:44:43.668Z,64.60
2023-04-26T13:47:10.514Z,63.60
2023-04-26T13:49:38.278Z,63.60
2023-04-26T13:52:05.117Z,63.30
2023-04-26T13:54:31.880Z,63.20
2023-04-26T13:56:58.969Z,63.40
2023-04-26T13:59:26.701Z,61.50
2023-04-26T14:01:55.766Z,61.90
2023-04-26T14:04:24.556Z,61.70
2023-04-26T14:06:52.440Z,61.80
2023-04-26T14:09:19.154Z,61.30
2023-04-26T14:11:51.560Z,61.50
2023-04-26T14:14:24.374Z,61.50
2023-04-26T14:16:51.350Z,62.00
2023-04-26T14:19:18.327Z,61.60
2023-04-26T14:21:45.362Z,60.80
2023-04-26T14:24:12.185Z,61.20
2023-04-26T14:26:38.986Z,61.00
2023-04-26T14:29:06.078Z,61.00
2023-04-26T14:31:33.061Z,62.30
2023-04-26T14:33:59.868Z,62.60
2023-04-26T14:36:28.034Z,62.60
2023-04-26T14:38:54.803Z,62.80
2023-04-26T14:41:21.694Z,61.90
2023-04-26T14:43:48.529Z,61.90
2023-04-26T14:46:15.354Z,62.50
2023-04-26T14:48:43.915Z,61.70
2023-04-26T14:51:11.240Z,62.60
2023-04-26T14:53:38.798Z,63.00
2023-04-26T14:56:07.675Z,63.40
2023-04-26T14:58:34.670Z,64.00
2023-04-26T15:01:02.590Z,64.40
2023-04-26T15:03:29.812Z,64.30
2023-04-26T15:05:56.818Z,63.00
2023-04-26T15:08:23.616Z,63.40
2023-04-26T15:10:51.478Z,63.30
2023-04-26T15:13:18.595Z,64.40
2023-04-26T15:15:45.643Z,63.30
2023-04-26T15:18:12.579Z,63.60
2023-04-26T15:20:40.885Z,63.80
2023-04-26T15:23:08.417Z,64.60
2023-04-26T15:25:36.974Z,64.90
2023-04-26T15:28:04.100Z,65.00
2023-04-26T15:30:31.181Z,65.60
2023-04-26T15:32:58.068Z,66.20
2023-04-26T15:35:25.163Z,66.00
2023-04-26T15:37:53.915Z,66.50
2023-04-26T15:40:22.149Z,66.30
2023-04-26T15:42:49.353Z,66.30
2023-04-26T15:45:16.373Z,66.20
2023-04-26T15:47:43.278Z,66.50
2023-04-26T15:50:10.857Z,66.60
2023-04-26T16:04:04.005Z,68.00
2023-04-26T16:06:31.058Z,68.30
2023-04-26T16:08:58.472Z,67.80
2023-04-26T16:11:26.626Z,68.00
2023-04-26T16:13:53.409Z,66.80
2023-04-26T16:16:20.240Z,65.50
2023-04-26T16:18:47.027Z,65.40
2023-04-26T16:21:13.831Z,66.00
2023-04-26T16:23:42.064Z,65.80
2023-04-26T16:26:09.563Z,66.30
2023-04-26T16:28:36.483Z,65.50
2023-04-26T16:31:03.454Z,65.70
2023-04-26T16:33:30.937Z,66.90
2023-04-26T16:35:57.846Z,66.30
2023-04-26T16:38:24.664Z,67.00
2023-04-26T16:40:58.196Z,67.50
2023-04-26T16:43:29.671Z,66.90
2023-04-26T16:46:04.450Z,67.40
2023-04-26T16:48:32.872Z,67.20
2023-04-26T16:51:00.964Z,67.20
2023-04-26T16:53:28.239Z,67.30
2023-04-26T16:55:55.437Z,67.40
2023-04-26T16:58:22.767Z,67.60
2023-04-26T17:00:49.546Z,67.90
2023-04-26T17:03:16.828Z,68.20
2023-04-26T17:05:49.200Z,67.60
2023-04-26T17:08:17.178Z,67.70
2023-04-26T17:10:46.112Z,68.00
2023-04-26T17:13:13.415Z,68.00
2023-04-26T17:15:41.169Z,67.40
2023-04-26T17:18:08.590Z,67.50
2023-04-26T17:20:36.108Z,67.60
2023-04-26T17:23:08.559Z,67.60
2023-04-26T17:25:35.730Z,66.90
2023-04-26T17:28:02.549Z,68.00
2023-04-26T17:30:29.445Z,68.10
2023-04-26T17:32:56.456Z,67.50
2023-04-26T17:35:23.353Z,68.00
2023-04-26T17:37:50.526Z,68.20
2023-04-26T17:40:18.576Z,68.60
2023-04-26T17:42:46.922Z,68.70
2023-04-26T17:45:14.581Z,68.60
2023-04-26T17:47:42.485Z,68.40
2023-04-26T17:50:09.783Z,68.60
2023-04-26T17:52:37.126Z,69.20
2023-04-26T17:55:09.723Z,69.20
2023-04-26T17:57:37.252Z,69.40
2023-04-26T18:00:06.704Z,69.70
2023-04-26T18:02:33.719Z,69.80
2023-04-26T18:05:00.865Z,70.30
2023-04-26T18:07:27.661Z,70.40
2023-04-26T18:09:54.420Z,70.90
2023-04-26T18:12:21.182Z,71.20
2023-04-26T18:14:47.903Z,71.50
2023-04-26T18:17:18.051Z,72.30
2023-04-26T18:19:44.926Z,71.40
2023-04-26T18:22:11.728Z,71.50
2023-04-26T18:24:38.633Z,71.90
2023-04-26T18:27:06.290Z,72.10
2023-04-26T18:29:33.109Z,72.10
2023-04-26T18:31:59.831Z,72.20
2023-04-26T18:34:26.932Z,73.00
2023-04-26T18:36:53.734Z,73.70
2023-04-26T18:39:20.713Z,74.30
2023-04-26T18:41:48.371Z,75.00
2023-04-26T18:44:15.252Z,75.30
2023-04-26T18:46:43.146Z,75.60
2023-04-26T18:49:10.449Z,76.10
2023-04-26T18:51:37.298Z,75.80
2023-04-26T18:54:04.374Z,76.50
2023-04-26T18:56:31.651Z,76.70
2023-04-26T18:58:58.563Z,76.90
2023-04-26T19:01:25.569Z,77.20
2023-04-26T19:03:52.670Z,77.10
2023-04-26T19:06:19.712Z,77.10
2023-04-26T19:08:46.722Z,77.70
2023-04-26T19:11:14.016Z,77.70
2023-04-26T19:13:41.518Z,77.60
2023-04-26T19:16:09.376Z,77.60
2023-04-26T19:18:37.151Z,77.50
2023-04-26T19:21:09.365Z,77.70
2023-04-26T19:23:36.739Z,78.00
2023-04-26T19:26:12.336Z,78.10
2023-04-26T19:28:39.240Z,78.00
2023-04-26T19:31:06.341Z,78.00
2023-04-26T19:33:33.461Z,78.90
2023-04-26T19:36:00.224Z,78.80
2023-04-26T19:38:27.133Z,78.70
2023-04-26T19:40:54.052Z,78.80
2023-04-26T19:43:20.909Z,78.80
2023-04-26T19:45:48.026Z,78.80
2023-04-26T19:48:14.936Z,78.60
2023-04-26T19:50:43.803Z,78.20
2023-04-26T19:53:13.196Z,77.90
2023-04-26T19:55:41.498Z,77.90
2023-04-26T19:58:10.410Z,78.10
2023-04-26T20:00:38.583Z,78.20
2023-04-26T20:03:06.492Z,78.50
2023-04-26T20:05:33.771Z,78.30
2023-04-26T20:08:01.399Z,78.40
2023-04-26T20:10:32.376Z,76.70
2023-04-26T20:13:00.439Z,76.60
2023-04-26T20:15:27.913Z,76.30
2023-04-26T20:17:55.095Z,76.20
2023-04-26T20:20:22.146Z,76.30
2023-04-26T20:22:48.933Z,76.10
2023-04-26T20:25:15.971Z,75.70
2023-04-26T20:27:42.820Z,76.00
2023-04-26T20:30:10.107Z,75.90
2023-04-26T20:32:36.888Z,75.90
2023-04-26T20:35:04.672Z,75.90
2023-04-26T20:37:31.959Z,76.10
2023-04-26T20:39:58.693Z,76.40
2023-04-26T20:42:28.456Z,76.50
2023-04-26T20:44:55.208Z,76.60
2023-04-26T20:47:22.641Z,76.60
2023-04-26T20:49:49.419Z,76.30
2023-04-26T20:52:16.158Z,76.40
2023-04-26T20:54:42.923Z,76.70
2023-04-26T20:57:09.659Z,76.50
2023-04-26T20:59:36.377Z,76.40
2023-04-26T21:02:03.340Z,76.60
2023-04-26T21:04:30.798Z,76.60
2023-04-26T21:06:57.787Z,76.50
2023-04-26T21:09:24.594Z,76.70
2023-04-26T21:11:51.338Z,76.90
2023-04-26T21:14:18.141Z,77.20
2023-04-26T21:16:44.883Z,77.60
2023-04-26T21:19:11.904Z,78.10
2023-04-26T21:21:38.816Z,78.40
2023-04-26T21:24:05.810Z,78.50
2023-04-26T21:26:32.643Z,78.90
2023-04-26T21:28:59.391Z,79.20
2023-04-26T21:31:26.319Z,79.00
2023-04-26T21:33:53.200Z,79.30
2023-04-26T21:36:20.066Z,79.40
2023-04-26T21:38:47.102Z,79.80
2023-04-26T21:41:13.925Z,79.80
2023-04-26T21:43:40.709Z,79.90
2023-04-26T21:46:08.147Z,79.90
2023-04-26T21:48:35.406Z,80.10
2023-04-26T21:51:02.215Z,80.20
2023-04-26T21:53:29.035Z,80.30
2023-04-26T21:55:56.002Z,80.20
2023-04-26T21:58:23.484Z,79.80
2023-04-26T22:00:50.640Z,80.10
2023-04-26T22:03:18.203Z,80.50
2023-04-26T22:05:48.269Z,80.10
2023-04-26T22:08:15.070Z,80.20
2023-04-26T22:22:08.847Z,82.30
2023-04-26T22:24:35.883Z,83.00
2023-04-26T22:27:03.682Z,82.90
2023-04-26T22:29:30.909Z,82.70
2023-04-26T22:31:57.815Z,82.70
2023-04-26T22:34:24.609Z,82.70
2023-04-26T22:36:51.332Z,82.50
2023-04-26T22:39:18.142Z,82.70
2023-04-26T22:41:44.876Z,82.90
2023-04-26T22:44:11.653Z,83.10
2023-04-26T22:46:38.477Z,83.20
2023-04-26T22:49:05.205Z,83.40
2023-04-26T22:51:32.578Z,83.70
2023-04-26T22:54:00.924Z,83.80
2023-04-26T22:56:27.701Z,83.70
2023-04-26T22:58:54.458Z,83.60
2023-04-26T23:01:21.257Z,84.10
2023-04-26T23:03:48.091Z,83.90
2023-04-26T23:06:14.909Z,83.90
2023-04-26T23:08:41.664Z,84.00
2023-04-26T23:11:09.033Z,84.00
2023-04-26T23:13:38.560Z,84.10
2023-04-26T23:16:05.667Z,84.30
2023-04-26T23:18:32.536Z,84.30
2023-04-26T23:20:59.264Z,85.20
2023-04-26T23:23:27.083Z,84.70
2023-04-26T23:25:53.859Z,84.60
2023-04-26T23:28:20.878Z,84.90
2023-04-26T23:30:48.581Z,84.90
2023-04-26T23:33:15.302Z,85.00
2023-04-26T23:35:42.349Z,85.50
2023-04-26T23:38:09.217Z,85.40
2023-04-26T23:40:37.181Z,85.40
2023-04-26T23:43:06.098Z,85.60
2023-04-26T23:45:32.994Z,85.80
2023-04-26T23:47:59.935Z,85.80
2023-04-26T23:50:26.830Z,85.30
2023-04-26T23:52:53.602Z,85.70
2023-04-26T23:55:20.551Z,85.90
2023-04-26T23:57:47.325Z,86.00
